sensor_id;sensor_type;location;lat;lon;timestamp;temperature;humidity
43697;DHT22;29301;47.620;19.560;2023-08-24T00:00:20;24.80;75.50
43697;DHT22;29301;47.620;19.560;2023-08-24T00:02:46;24.80;75.60
43697;DHT22;29301;47.620;19.560;2023-08-24T00:05:12;24.70;76.00
43697;DHT22;29301;47.620;19.560;2023-08-24T00:07:38;24.70;76.40
43697;DHT22;29301;47.620;19.560;2023-08-24T00:10:04;24.60;76.40
43697;DHT22;29301;47.620;19.560;2023-08-24T00:12:33;24.60;76.30
43697;DHT22;29301;47.620;19.560;2023-08-24T00:15:01;24.50;76.80
43697;DHT22;29301;47.620;19.560;2023-08-24T00:17:26;24.40;77.50
43697;DHT22;29301;47.620;19.560;2023-08-24T00:19:52;24.40;78.30
43697;DHT22;29301;47.620;19.560;2023-08-24T00:22:17;24.30;78.90
43697;DHT22;29301;47.620;19.560;2023-08-24T00:24:43;24.30;79.50
43697;DHT22;29301;47.620;19.560;2023-08-24T00:27:09;24.30;79.80
43697;DHT22;29301;47.620;19.560;2023-08-24T00:29:35;24.30;79.70
43697;DHT22;29301;47.620;19.560;2023-08-24T00:32:01;24.30;80.10
43697;DHT22;29301;47.620;19.560;2023-08-24T00:34:27;24.20;80.90
43697;DHT22;29301;47.620;19.560;2023-08-24T00:36:52;24.10;81.50
43697;DHT22;29301;47.620;19.560;2023-08-24T00:39:18;24.10;81.80
43697;DHT22;29301;47.620;19.560;2023-08-24T00:41:43;24.10;81.80
43697;DHT22;29301;47.620;19.560;2023-08-24T00:44:10;24.20;81.70
43697;DHT22;29301;47.620;19.560;2023-08-24T00:46:37;24.10;81.50
43697;DHT22;29301;47.620;19.560;2023-08-24T00:49:03;24.10;81.90
43697;DHT22;29301;47.620;19.560;2023-08-24T00:51:29;24.10;81.90
43697;DHT22;29301;47.620;19.560;2023-08-24T00:53:54;24.10;82.00
43697;DHT22;29301;47.620;19.560;2023-08-24T00:56:22;24.10;81.90
43697;DHT22;29301;47.620;19.560;2023-08-24T00:58:50;24.10;82.00
43697;DHT22;29301;47.620;19.560;2023-08-24T01:01:18;24.00;82.50
43697;DHT22;29301;47.620;19.560;2023-08-24T01:03:44;24.00;82.70
43697;DHT22;29301;47.620;19.560;2023-08-24T01:06:10;23.90;83.10
43697;DHT22;29301;47.620;19.560;2023-08-24T01:08:36;23.90;83.80
43697;DHT22;29301;47.620;19.560;2023-08-24T01:14:08;23.80;84.40
43697;DHT22;29301;47.620;19.560;2023-08-24T01:16:35;23.80;84.80
43697;DHT22;29301;47.620;19.560;2023-08-24T01:19:07;23.80;84.90
43697;DHT22;29301;47.620;19.560;2023-08-24T01:21:37;23.70;85.50
43697;DHT22;29301;47.620;19.560;2023-08-24T01:24:36;23.70;85.80
43697;DHT22;29301;47.620;19.560;2023-08-24T01:27:04;23.60;86.20
43697;DHT22;29301;47.620;19.560;2023-08-24T01:29:30;23.60;86.20
43697;DHT22;29301;47.620;19.560;2023-08-24T01:31:56;23.60;86.00
43697;DHT22;29301;47.620;19.560;2023-08-24T01:34:22;23.60;86.60
43697;DHT22;29301;47.620;19.560;2023-08-24T01:36:48;23.50;86.70
43697;DHT22;29301;47.620;19.560;2023-08-24T01:39:29;23.60;86.80
43697;DHT22;29301;47.620;19.560;2023-08-24T01:42:02;23.60;86.70
43697;DHT22;29301;47.620;19.560;2023-08-24T01:44:29;23.60;86.10
43697;DHT22;29301;47.620;19.560;2023-08-24T01:47:02;23.60;85.80
43697;DHT22;29301;47.620;19.560;2023-08-24T01:49:29;23.60;85.80
43697;DHT22;29301;47.620;19.560;2023-08-24T01:51:56;23.50;85.70
43697;DHT22;29301;47.620;19.560;2023-08-24T01:54:22;23.50;85.80
43697;DHT22;29301;47.620;19.560;2023-08-24T01:56:48;23.50;85.70
43697;DHT22;29301;47.620;19.560;2023-08-24T01:59:13;23.50;85.30
43697;DHT22;29301;47.620;19.560;2023-08-24T02:01:39;23.50;85.20
43697;DHT22;29301;47.620;19.560;2023-08-24T02:04:05;23.50;85.40
43697;DHT22;29301;47.620;19.560;2023-08-24T02:06:31;23.50;86.20
43697;DHT22;29301;47.620;19.560;2023-08-24T02:08:56;23.40;87.00
43697;DHT22;29301;47.620;19.560;2023-08-24T02:11:22;23.30;86.70
43697;DHT22;29301;47.620;19.560;2023-08-24T02:13:48;23.30;86.70
43697;DHT22;29301;47.620;19.560;2023-08-24T02:16:13;23.40;85.80
43697;DHT22;29301;47.620;19.560;2023-08-24T02:18:39;23.50;85.40
43697;DHT22;29301;47.620;19.560;2023-08-24T02:21:09;23.50;85.30
43697;DHT22;29301;47.620;19.560;2023-08-24T02:23:37;23.40;85.60
43697;DHT22;29301;47.620;19.560;2023-08-24T02:26:03;23.40;86.00
43697;DHT22;29301;47.620;19.560;2023-08-24T02:28:29;23.30;86.50
43697;DHT22;29301;47.620;19.560;2023-08-24T02:31:00;23.30;86.30
43697;DHT22;29301;47.620;19.560;2023-08-24T02:33:26;23.30;86.90
43697;DHT22;29301;47.620;19.560;2023-08-24T02:35:51;23.20;87.80
43697;DHT22;29301;47.620;19.560;2023-08-24T02:38:17;23.10;88.70
43697;DHT22;29301;47.620;19.560;2023-08-24T02:40:43;23.20;88.40
43697;DHT22;29301;47.620;19.560;2023-08-24T02:43:08;23.30;87.80
43697;DHT22;29301;47.620;19.560;2023-08-24T02:45:34;23.20;87.50
43697;DHT22;29301;47.620;19.560;2023-08-24T02:48:00;23.20;88.10
43697;DHT22;29301;47.620;19.560;2023-08-24T02:50:25;23.10;88.70
43697;DHT22;29301;47.620;19.560;2023-08-24T02:52:51;23.10;89.20
43697;DHT22;29301;47.620;19.560;2023-08-24T02:55:17;23.20;89.30
43697;DHT22;29301;47.620;19.560;2023-08-24T02:57:43;23.20;89.10
43697;DHT22;29301;47.620;19.560;2023-08-24T03:00:09;23.20;88.20
43697;DHT22;29301;47.620;19.560;2023-08-24T03:02:35;23.30;87.50
43697;DHT22;29301;47.620;19.560;2023-08-24T03:05:02;23.20;87.50
43697;DHT22;29301;47.620;19.560;2023-08-24T03:07:28;23.20;87.90
43697;DHT22;29301;47.620;19.560;2023-08-24T03:09:54;23.00;88.20
43697;DHT22;29301;47.620;19.560;2023-08-24T03:12:19;23.00;89.10
43697;DHT22;29301;47.620;19.560;2023-08-24T03:14:45;23.00;89.40
43697;DHT22;29301;47.620;19.560;2023-08-24T03:17:11;22.90;89.20
43697;DHT22;29301;47.620;19.560;2023-08-24T03:19:37;22.90;89.40
43697;DHT22;29301;47.620;19.560;2023-08-24T03:22:02;22.90;89.40
43697;DHT22;29301;47.620;19.560;2023-08-24T03:24:28;23.00;89.20
43697;DHT22;29301;47.620;19.560;2023-08-24T03:26:54;23.00;88.90
43697;DHT22;29301;47.620;19.560;2023-08-24T03:29:20;23.10;88.00
43697;DHT22;29301;47.620;19.560;2023-08-24T03:31:45;23.00;87.30
43697;DHT22;29301;47.620;19.560;2023-08-24T03:34:11;22.90;87.70
43697;DHT22;29301;47.620;19.560;2023-08-24T03:36:37;22.80;87.90
43697;DHT22;29301;47.620;19.560;2023-08-24T03:39:03;22.80;88.70
43697;DHT22;29301;47.620;19.560;2023-08-24T03:41:29;22.70;89.30
43697;DHT22;29301;47.620;19.560;2023-08-24T03:43:54;22.70;90.10
43697;DHT22;29301;47.620;19.560;2023-08-24T03:46:20;22.70;90.30
43697;DHT22;29301;47.620;19.560;2023-08-24T03:48:46;22.60;90.80
43697;DHT22;29301;47.620;19.560;2023-08-24T03:51:12;22.60;91.20
43697;DHT22;29301;47.620;19.560;2023-08-24T03:53:37;22.50;91.40
43697;DHT22;29301;47.620;19.560;2023-08-24T03:56:04;22.50;91.60
43697;DHT22;29301;47.620;19.560;2023-08-24T03:58:29;22.50;91.90
43697;DHT22;29301;47.620;19.560;2023-08-24T04:00:55;22.50;92.10
43697;DHT22;29301;47.620;19.560;2023-08-24T04:03:21;22.50;92.00
43697;DHT22;29301;47.620;19.560;2023-08-24T04:05:47;22.50;92.40
43697;DHT22;29301;47.620;19.560;2023-08-24T04:08:12;22.50;92.50
43697;DHT22;29301;47.620;19.560;2023-08-24T04:10:38;22.50;92.40
43697;DHT22;29301;47.620;19.560;2023-08-24T04:13:04;22.50;92.40
43697;DHT22;29301;47.620;19.560;2023-08-24T04:15:29;22.60;92.20
43697;DHT22;29301;47.620;19.560;2023-08-24T04:17:55;22.60;91.90
43697;DHT22;29301;47.620;19.560;2023-08-24T04:20:22;22.50;92.00
43697;DHT22;29301;47.620;19.560;2023-08-24T04:22:47;22.40;92.20
43697;DHT22;29301;47.620;19.560;2023-08-24T04:25:13;22.40;92.50
43697;DHT22;29301;47.620;19.560;2023-08-24T04:27:39;22.30;93.20
43697;DHT22;29301;47.620;19.560;2023-08-24T04:30:05;22.20;94.00
43697;DHT22;29301;47.620;19.560;2023-08-24T04:32:32;22.20;94.10
43697;DHT22;29301;47.620;19.560;2023-08-24T04:34:58;22.30;94.30
43697;DHT22;29301;47.620;19.560;2023-08-24T04:37:23;22.30;94.40
43697;DHT22;29301;47.620;19.560;2023-08-24T04:39:49;22.30;94.30
43697;DHT22;29301;47.620;19.560;2023-08-24T04:42:15;22.30;94.40
43697;DHT22;29301;47.620;19.560;2023-08-24T04:44:41;22.30;94.50
43697;DHT22;29301;47.620;19.560;2023-08-24T04:47:07;22.30;94.60
43697;DHT22;29301;47.620;19.560;2023-08-24T04:49:32;22.40;94.70
43697;DHT22;29301;47.620;19.560;2023-08-24T04:51:58;22.40;94.70
43697;DHT22;29301;47.620;19.560;2023-08-24T04:54:24;22.40;94.60
43697;DHT22;29301;47.620;19.560;2023-08-24T04:56:49;22.40;94.80
43697;DHT22;29301;47.620;19.560;2023-08-24T04:59:15;22.50;94.70
43697;DHT22;29301;47.620;19.560;2023-08-24T05:01:41;22.50;94.50
43697;DHT22;29301;47.620;19.560;2023-08-24T05:04:06;22.50;94.90
43697;DHT22;29301;47.620;19.560;2023-08-24T05:06:32;22.60;95.10
43697;DHT22;29301;47.620;19.560;2023-08-24T05:08:58;22.60;95.20
43697;DHT22;29301;47.620;19.560;2023-08-24T05:11:26;22.60;95.40
43697;DHT22;29301;47.620;19.560;2023-08-24T05:13:52;22.60;95.20
43697;DHT22;29301;47.620;19.560;2023-08-24T05:16:17;22.70;95.40
43697;DHT22;29301;47.620;19.560;2023-08-24T05:18:43;22.70;95.60
43697;DHT22;29301;47.620;19.560;2023-08-24T05:21:09;22.70;95.70
43697;DHT22;29301;47.620;19.560;2023-08-24T05:23:35;22.80;95.70
43697;DHT22;29301;47.620;19.560;2023-08-24T05:26:02;22.80;95.60
43697;DHT22;29301;47.620;19.560;2023-08-24T05:28:29;22.90;95.90
43697;DHT22;29301;47.620;19.560;2023-08-24T05:30:55;22.90;96.10
43697;DHT22;29301;47.620;19.560;2023-08-24T05:33:22;22.90;96.20
43697;DHT22;29301;47.620;19.560;2023-08-24T05:35:48;23.00;96.10
43697;DHT22;29301;47.620;19.560;2023-08-24T05:38:15;23.10;96.00
43697;DHT22;29301;47.620;19.560;2023-08-24T05:40:41;23.10;96.10
43697;DHT22;29301;47.620;19.560;2023-08-24T05:43:08;23.20;96.10
43697;DHT22;29301;47.620;19.560;2023-08-24T05:45:34;23.20;96.20
43697;DHT22;29301;47.620;19.560;2023-08-24T05:47:59;23.30;96.30
43697;DHT22;29301;47.620;19.560;2023-08-24T05:50:25;23.40;96.50
43697;DHT22;29301;47.620;19.560;2023-08-24T05:52:51;23.50;96.40
43697;DHT22;29301;47.620;19.560;2023-08-24T05:55:17;23.60;96.20
43697;DHT22;29301;47.620;19.560;2023-08-24T05:57:42;23.60;95.80
43697;DHT22;29301;47.620;19.560;2023-08-24T06:00:08;23.70;95.80
43697;DHT22;29301;47.620;19.560;2023-08-24T06:02:39;23.80;95.60
43697;DHT22;29301;47.620;19.560;2023-08-24T06:05:06;23.90;95.20
43697;DHT22;29301;47.620;19.560;2023-08-24T06:07:32;24.00;95.10
43697;DHT22;29301;47.620;19.560;2023-08-24T06:09:58;24.10;94.90
43697;DHT22;29301;47.620;19.560;2023-08-24T06:12:24;24.10;94.90
43697;DHT22;29301;47.620;19.560;2023-08-24T06:14:50;24.20;94.80
43697;DHT22;29301;47.620;19.560;2023-08-24T06:17:15;24.30;94.80
43697;DHT22;29301;47.620;19.560;2023-08-24T06:19:41;24.40;94.50
43697;DHT22;29301;47.620;19.560;2023-08-24T06:22:07;24.40;94.40
43697;DHT22;29301;47.620;19.560;2023-08-24T06:24:33;24.50;93.60
43697;DHT22;29301;47.620;19.560;2023-08-24T06:26:58;24.50;93.40
43697;DHT22;29301;47.620;19.560;2023-08-24T06:29:24;24.50;93.30
43697;DHT22;29301;47.620;19.560;2023-08-24T06:31:50;24.70;93.00
43697;DHT22;29301;47.620;19.560;2023-08-24T06:34:15;24.80;92.50
43697;DHT22;29301;47.620;19.560;2023-08-24T06:36:41;24.80;91.70
43697;DHT22;29301;47.620;19.560;2023-08-24T06:39:07;24.90;91.80
43697;DHT22;29301;47.620;19.560;2023-08-24T06:41:34;25.00;92.30
43697;DHT22;29301;47.620;19.560;2023-08-24T06:44:01;25.10;92.30
43697;DHT22;29301;47.620;19.560;2023-08-24T06:46:26;25.30;91.30
43697;DHT22;29301;47.620;19.560;2023-08-24T06:48:52;25.40;90.90
43697;DHT22;29301;47.620;19.560;2023-08-24T06:51:18;25.50;89.80
43697;DHT22;29301;47.620;19.560;2023-08-24T06:53:43;25.70;89.60
43697;DHT22;29301;47.620;19.560;2023-08-24T06:56:10;25.80;88.10
43697;DHT22;29301;47.620;19.560;2023-08-24T06:58:35;25.90;86.90
43697;DHT22;29301;47.620;19.560;2023-08-24T07:01:01;26.00;85.80
43697;DHT22;29301;47.620;19.560;2023-08-24T07:03:31;26.10;85.00
43697;DHT22;29301;47.620;19.560;2023-08-24T07:05:58;26.20;82.90
43697;DHT22;29301;47.620;19.560;2023-08-24T07:08:24;26.40;82.10
43697;DHT22;29301;47.620;19.560;2023-08-24T07:10:50;26.50;79.00
43697;DHT22;29301;47.620;19.560;2023-08-24T07:13:15;26.70;74.50
43697;DHT22;29301;47.620;19.560;2023-08-24T07:15:42;26.70;75.30
43697;DHT22;29301;47.620;19.560;2023-08-24T07:18:07;26.90;75.80
43697;DHT22;29301;47.620;19.560;2023-08-24T07:20:34;27.10;74.80
43697;DHT22;29301;47.620;19.560;2023-08-24T07:23:00;27.20;74.70
43697;DHT22;29301;47.620;19.560;2023-08-24T07:25:25;27.40;75.20
43697;DHT22;29301;47.620;19.560;2023-08-24T07:27:53;27.50;75.70
43697;DHT22;29301;47.620;19.560;2023-08-24T07:30:24;27.70;73.40
43697;DHT22;29301;47.620;19.560;2023-08-24T07:32:50;27.90;71.30
43697;DHT22;29301;47.620;19.560;2023-08-24T07:35:15;28.00;70.10
43697;DHT22;29301;47.620;19.560;2023-08-24T07:37:41;28.10;68.50
43697;DHT22;29301;47.620;19.560;2023-08-24T07:40:07;28.20;67.90
43697;DHT22;29301;47.620;19.560;2023-08-24T07:42:46;28.40;64.80
43697;DHT22;29301;47.620;19.560;2023-08-24T07:45:13;28.60;64.80
43697;DHT22;29301;47.620;19.560;2023-08-24T07:47:42;28.70;63.70
43697;DHT22;29301;47.620;19.560;2023-08-24T07:50:09;28.70;63.40
43697;DHT22;29301;47.620;19.560;2023-08-24T07:52:36;29.00;61.30
43697;DHT22;29301;47.620;19.560;2023-08-24T07:55:01;29.10;59.30
43697;DHT22;29301;47.620;19.560;2023-08-24T07:57:29;29.20;59.00
43697;DHT22;29301;47.620;19.560;2023-08-24T07:59:57;29.30;57.60
43697;DHT22;29301;47.620;19.560;2023-08-24T08:02:23;29.40;57.50
43697;DHT22;29301;47.620;19.560;2023-08-24T08:04:48;29.60;57.40
43697;DHT22;29301;47.620;19.560;2023-08-24T08:07:14;29.80;55.10
43697;DHT22;29301;47.620;19.560;2023-08-24T08:09:40;29.80;54.70
43697;DHT22;29301;47.620;19.560;2023-08-24T08:12:06;29.90;56.20
43697;DHT22;29301;47.620;19.560;2023-08-24T08:14:31;30.10;55.10
43697;DHT22;29301;47.620;19.560;2023-08-24T08:16:57;30.20;52.10
43697;DHT22;29301;47.620;19.560;2023-08-24T08:19:23;30.40;50.20
43697;DHT22;29301;47.620;19.560;2023-08-24T08:21:50;30.40;49.00
43697;DHT22;29301;47.620;19.560;2023-08-24T08:24:16;30.60;49.00
43697;DHT22;29301;47.620;19.560;2023-08-24T08:26:42;30.70;46.90
43697;DHT22;29301;47.620;19.560;2023-08-24T08:29:08;30.80;47.60
43697;DHT22;29301;47.620;19.560;2023-08-24T08:31:33;30.80;46.30
43697;DHT22;29301;47.620;19.560;2023-08-24T08:33:59;30.70;46.70
43697;DHT22;29301;47.620;19.560;2023-08-24T08:36:25;30.80;45.30
43697;DHT22;29301;47.620;19.560;2023-08-24T08:38:50;30.80;45.40
43697;DHT22;29301;47.620;19.560;2023-08-24T08:41:20;30.80;45.00
43697;DHT22;29301;47.620;19.560;2023-08-24T08:43:47;30.80;44.30
43697;DHT22;29301;47.620;19.560;2023-08-24T08:46:15;30.80;44.20
43697;DHT22;29301;47.620;19.560;2023-08-24T08:48:42;31.00;45.00
43697;DHT22;29301;47.620;19.560;2023-08-24T08:51:09;31.30;44.50
43697;DHT22;29301;47.620;19.560;2023-08-24T08:53:35;31.40;44.00
43697;DHT22;29301;47.620;19.560;2023-08-24T08:56:01;31.60;42.70
43697;DHT22;29301;47.620;19.560;2023-08-24T08:58:31;31.70;40.60
43697;DHT22;29301;47.620;19.560;2023-08-24T09:00:57;31.70;40.90
43697;DHT22;29301;47.620;19.560;2023-08-24T09:03:26;31.80;40.20
43697;DHT22;29301;47.620;19.560;2023-08-24T09:05:53;31.90;40.50
43697;DHT22;29301;47.620;19.560;2023-08-24T09:08:18;31.90;39.50
43697;DHT22;29301;47.620;19.560;2023-08-24T09:10:45;31.90;39.40
43697;DHT22;29301;47.620;19.560;2023-08-24T09:13:11;32.00;39.10
43697;DHT22;29301;47.620;19.560;2023-08-24T09:15:37;31.90;38.50
43697;DHT22;29301;47.620;19.560;2023-08-24T09:18:03;31.90;39.40
43697;DHT22;29301;47.620;19.560;2023-08-24T09:20:29;32.00;38.30
43697;DHT22;29301;47.620;19.560;2023-08-24T09:22:55;32.10;37.80
43697;DHT22;29301;47.620;19.560;2023-08-24T09:25:23;32.20;38.50
43697;DHT22;29301;47.620;19.560;2023-08-24T09:27:59;32.30;37.80
43697;DHT22;29301;47.620;19.560;2023-08-24T09:30:32;32.40;38.00
43697;DHT22;29301;47.620;19.560;2023-08-24T09:33:13;32.40;38.50
43697;DHT22;29301;47.620;19.560;2023-08-24T09:35:38;32.30;38.00
43697;DHT22;29301;47.620;19.560;2023-08-24T09:38:21;32.20;37.00
43697;DHT22;29301;47.620;19.560;2023-08-24T09:40:50;32.50;35.80
43697;DHT22;29301;47.620;19.560;2023-08-24T09:43:19;32.80;33.60
43697;DHT22;29301;47.620;19.560;2023-08-24T09:45:56;32.90;33.30
43697;DHT22;29301;47.620;19.560;2023-08-24T09:48:22;33.10;33.00
43697;DHT22;29301;47.620;19.560;2023-08-24T09:50:51;33.00;33.20
43697;DHT22;29301;47.620;19.560;2023-08-24T09:53:22;33.00;32.90
43697;DHT22;29301;47.620;19.560;2023-08-24T09:55:53;33.10;34.40
43697;DHT22;29301;47.620;19.560;2023-08-24T09:58:21;33.10;33.70
43697;DHT22;29301;47.620;19.560;2023-08-24T10:00:47;33.00;34.10
43697;DHT22;29301;47.620;19.560;2023-08-24T10:03:17;33.00;33.00
43697;DHT22;29301;47.620;19.560;2023-08-24T10:05:56;33.10;33.40
43697;DHT22;29301;47.620;19.560;2023-08-24T10:08:32;33.20;32.60
43697;DHT22;29301;47.620;19.560;2023-08-24T10:11:00;33.20;31.40
43697;DHT22;29301;47.620;19.560;2023-08-24T10:16:20;32.30;32.40
43697;DHT22;29301;47.620;19.560;2023-08-24T10:18:47;32.50;32.60
43697;DHT22;29301;47.620;19.560;2023-08-24T10:21:13;32.70;32.30
43697;DHT22;29301;47.620;19.560;2023-08-24T10:23:39;32.90;29.80
43697;DHT22;29301;47.620;19.560;2023-08-24T10:26:07;33.20;29.50
43697;DHT22;29301;47.620;19.560;2023-08-24T10:28:33;33.40;29.00
43697;DHT22;29301;47.620;19.560;2023-08-24T10:30:59;33.50;28.50
43697;DHT22;29301;47.620;19.560;2023-08-24T10:33:27;33.50;28.50
43697;DHT22;29301;47.620;19.560;2023-08-24T10:35:53;33.60;28.30
43697;DHT22;29301;47.620;19.560;2023-08-24T10:38:23;33.30;27.80
43697;DHT22;29301;47.620;19.560;2023-08-24T10:40:51;33.00;28.30
43697;DHT22;29301;47.620;19.560;2023-08-24T10:43:16;33.00;28.20
43697;DHT22;29301;47.620;19.560;2023-08-24T10:46:01;33.20;26.30
43697;DHT22;29301;47.620;19.560;2023-08-24T10:48:29;33.40;26.20
43697;DHT22;29301;47.620;19.560;2023-08-24T10:53:59;33.50;26.90
43697;DHT22;29301;47.620;19.560;2023-08-24T10:56:36;33.70;27.10
43697;DHT22;29301;47.620;19.560;2023-08-24T10:59:15;33.90;26.00
43697;DHT22;29301;47.620;19.560;2023-08-24T11:02:01;33.90;25.30
43697;DHT22;29301;47.620;19.560;2023-08-24T11:04:27;33.70;25.20
43697;DHT22;29301;47.620;19.560;2023-08-24T11:06:57;33.80;25.20
43697;DHT22;29301;47.620;19.560;2023-08-24T11:09:24;34.00;25.90
43697;DHT22;29301;47.620;19.560;2023-08-24T11:12:01;34.10;25.10
43697;DHT22;29301;47.620;19.560;2023-08-24T11:14:29;34.00;23.60
43697;DHT22;29301;47.620;19.560;2023-08-24T11:17:18;34.20;23.80
43697;DHT22;29301;47.620;19.560;2023-08-24T11:19:49;34.30;22.70
43697;DHT22;29301;47.620;19.560;2023-08-24T11:22:18;34.20;22.90
43697;DHT22;29301;47.620;19.560;2023-08-24T11:24:45;34.00;23.40
43697;DHT22;29301;47.620;19.560;2023-08-24T11:27:11;34.00;23.10
43697;DHT22;29301;47.620;19.560;2023-08-24T11:29:37;33.90;23.70
43697;DHT22;29301;47.620;19.560;2023-08-24T11:32:03;34.00;24.80
43697;DHT22;29301;47.620;19.560;2023-08-24T11:34:30;34.00;24.50
43697;DHT22;29301;47.620;19.560;2023-08-24T11:36:55;34.00;24.10
43697;DHT22;29301;47.620;19.560;2023-08-24T11:39:22;34.20;22.80
43697;DHT22;29301;47.620;19.560;2023-08-24T11:42:04;34.00;22.40
43697;DHT22;29301;47.620;19.560;2023-08-24T11:44:44;33.80;23.20
43697;DHT22;29301;47.620;19.560;2023-08-24T11:47:11;33.90;23.60
43697;DHT22;29301;47.620;19.560;2023-08-24T11:49:37;34.10;22.70
43697;DHT22;29301;47.620;19.560;2023-08-24T11:52:03;34.20;22.70
43697;DHT22;29301;47.620;19.560;2023-08-24T11:54:32;33.90;22.40
43697;DHT22;29301;47.620;19.560;2023-08-24T11:56:58;33.80;22.80
43697;DHT22;29301;47.620;19.560;2023-08-24T11:59:24;34.00;23.20
43697;DHT22;29301;47.620;19.560;2023-08-24T12:01:51;34.10;23.60
43697;DHT22;29301;47.620;19.560;2023-08-24T12:04:18;34.20;23.40
43697;DHT22;29301;47.620;19.560;2023-08-24T12:06:44;34.30;23.60
43697;DHT22;29301;47.620;19.560;2023-08-24T12:09:10;34.40;23.10
43697;DHT22;29301;47.620;19.560;2023-08-24T12:11:38;34.10;23.20
43697;DHT22;29301;47.620;19.560;2023-08-24T12:14:05;33.90;23.40
43697;DHT22;29301;47.620;19.560;2023-08-24T12:16:33;33.70;23.90
43697;DHT22;29301;47.620;19.560;2023-08-24T12:19:00;33.80;24.10
43697;DHT22;29301;47.620;19.560;2023-08-24T12:21:29;33.90;23.70
43697;DHT22;29301;47.620;19.560;2023-08-24T12:24:02;33.80;23.50
43697;DHT22;29301;47.620;19.560;2023-08-24T12:26:32;33.50;23.30
43697;DHT22;29301;47.620;19.560;2023-08-24T12:29:05;33.70;22.70
43697;DHT22;29301;47.620;19.560;2023-08-24T12:31:32;33.90;22.60
43697;DHT22;29301;47.620;19.560;2023-08-24T12:34:05;34.00;23.10
43697;DHT22;29301;47.620;19.560;2023-08-24T12:36:35;34.10;23.40
43697;DHT22;29301;47.620;19.560;2023-08-24T12:39:02;34.10;22.80
43697;DHT22;29301;47.620;19.560;2023-08-24T12:41:30;34.00;22.20
43697;DHT22;29301;47.620;19.560;2023-08-24T12:43:55;33.70;22.10
43697;DHT22;29301;47.620;19.560;2023-08-24T12:46:21;33.50;22.70
43697;DHT22;29301;47.620;19.560;2023-08-24T12:48:47;33.50;22.80
43697;DHT22;29301;47.620;19.560;2023-08-24T12:51:17;33.40;23.60
43697;DHT22;29301;47.620;19.560;2023-08-24T12:53:43;33.50;23.30
43697;DHT22;29301;47.620;19.560;2023-08-24T12:56:08;33.60;23.30
43697;DHT22;29301;47.620;19.560;2023-08-24T12:58:34;33.50;23.30
43697;DHT22;29301;47.620;19.560;2023-08-24T13:01:00;33.40;23.50
43697;DHT22;29301;47.620;19.560;2023-08-24T13:03:26;33.40;23.80
43697;DHT22;29301;47.620;19.560;2023-08-24T13:05:52;33.50;23.90
43697;DHT22;29301;47.620;19.560;2023-08-24T13:08:17;33.50;23.40
43697;DHT22;29301;47.620;19.560;2023-08-24T13:10:43;33.50;23.30
43697;DHT22;29301;47.620;19.560;2023-08-24T13:13:09;33.50;23.10
43697;DHT22;29301;47.620;19.560;2023-08-24T13:15:34;33.60;22.70
43697;DHT22;29301;47.620;19.560;2023-08-24T13:18:00;33.60;21.60
43697;DHT22;29301;47.620;19.560;2023-08-24T13:20:26;33.50;21.30
43697;DHT22;29301;47.620;19.560;2023-08-24T13:22:53;33.60;22.00
43697;DHT22;29301;47.620;19.560;2023-08-24T13:25:18;33.60;22.30
43697;DHT22;29301;47.620;19.560;2023-08-24T13:27:44;33.70;22.70
43697;DHT22;29301;47.620;19.560;2023-08-24T13:30:10;33.60;22.50
43697;DHT22;29301;47.620;19.560;2023-08-24T13:32:36;33.50;22.40
43697;DHT22;29301;47.620;19.560;2023-08-24T13:35:03;33.50;22.40
43697;DHT22;29301;47.620;19.560;2023-08-24T13:37:28;33.50;21.70
43697;DHT22;29301;47.620;19.560;2023-08-24T13:39:54;33.40;21.70
43697;DHT22;29301;47.620;19.560;2023-08-24T13:42:20;33.50;22.20
43697;DHT22;29301;47.620;19.560;2023-08-24T13:44:46;33.50;22.50
43697;DHT22;29301;47.620;19.560;2023-08-24T13:47:12;33.50;22.50
43697;DHT22;29301;47.620;19.560;2023-08-24T13:49:38;33.50;22.00
43697;DHT22;29301;47.620;19.560;2023-08-24T13:52:04;33.50;22.40
43697;DHT22;29301;47.620;19.560;2023-08-24T13:54:30;33.40;22.00
43697;DHT22;29301;47.620;19.560;2023-08-24T13:56:56;33.20;21.90
43697;DHT22;29301;47.620;19.560;2023-08-24T13:59:24;33.10;22.30
43697;DHT22;29301;47.620;19.560;2023-08-24T14:01:49;33.20;23.10
43697;DHT22;29301;47.620;19.560;2023-08-24T14:04:15;33.30;22.90
43697;DHT22;29301;47.620;19.560;2023-08-24T14:06:41;33.50;22.70
43697;DHT22;29301;47.620;19.560;2023-08-24T14:09:06;33.50;22.50
43697;DHT22;29301;47.620;19.560;2023-08-24T14:11:32;33.70;22.30
43697;DHT22;29301;47.620;19.560;2023-08-24T14:13:58;33.70;22.50
43697;DHT22;29301;47.620;19.560;2023-08-24T14:16:25;33.70;22.40
43697;DHT22;29301;47.620;19.560;2023-08-24T14:18:52;33.50;22.20
43697;DHT22;29301;47.620;19.560;2023-08-24T14:21:18;33.30;22.90
43697;DHT22;29301;47.620;19.560;2023-08-24T14:23:45;33.40;23.30
43697;DHT22;29301;47.620;19.560;2023-08-24T14:26:11;33.40;22.30
43697;DHT22;29301;47.620;19.560;2023-08-24T14:31:17;33.50;21.20
43697;DHT22;29301;47.620;19.560;2023-08-24T14:33:43;33.60;21.20
43697;DHT22;29301;47.620;19.560;2023-08-24T14:36:09;33.50;20.40
43697;DHT22;29301;47.620;19.560;2023-08-24T14:38:38;33.40;21.10
43697;DHT22;29301;47.620;19.560;2023-08-24T14:41:04;33.50;21.70
43697;DHT22;29301;47.620;19.560;2023-08-24T14:43:30;33.50;22.10
43697;DHT22;29301;47.620;19.560;2023-08-24T14:45:55;33.50;22.10
43697;DHT22;29301;47.620;19.560;2023-08-24T14:48:21;33.50;21.90
43697;DHT22;29301;47.620;19.560;2023-08-24T14:50:47;33.50;21.90
43697;DHT22;29301;47.620;19.560;2023-08-24T14:53:12;33.50;21.80
43697;DHT22;29301;47.620;19.560;2023-08-24T14:55:38;33.50;21.60
43697;DHT22;29301;47.620;19.560;2023-08-24T14:58:04;33.40;22.00
43697;DHT22;29301;47.620;19.560;2023-08-24T15:00:30;33.40;21.80
43697;DHT22;29301;47.620;19.560;2023-08-24T15:02:56;33.30;21.20
43697;DHT22;29301;47.620;19.560;2023-08-24T15:05:22;33.30;21.30
43697;DHT22;29301;47.620;19.560;2023-08-24T15:07:49;33.20;20.30
43697;DHT22;29301;47.620;19.560;2023-08-24T15:10:15;33.30;20.30
43697;DHT22;29301;47.620;19.560;2023-08-24T15:12:43;33.20;20.80
43697;DHT22;29301;47.620;19.560;2023-08-24T15:15:09;33.20;20.30
43697;DHT22;29301;47.620;19.560;2023-08-24T15:17:35;33.20;20.40
43697;DHT22;29301;47.620;19.560;2023-08-24T15:20:02;33.00;20.40
43697;DHT22;29301;47.620;19.560;2023-08-24T15:22:30;32.90;20.40
43697;DHT22;29301;47.620;19.560;2023-08-24T15:24:57;32.90;20.50